sensor_id;sensor_type;location;lat;lon;timestamp;P1;durP1;ratioP1;P2;durP2;ratioP2
11699;SDS011;5906;51.660;6.674;2023-02-15T00:00:05;35.80;;;20.07;;
11699;SDS011;5906;51.660;6.674;2023-02-15T00:02:34;42.97;;;20.30;;
11699;SDS011;5906;51.660;6.674;2023-02-15T00:05:01;31.60;;;18.57;;
11699;SDS011;5906;51.660;6.674;2023-02-15T00:07:28;42.97;;;20.17;;
11699;SDS011;5906;51.660;6.674;2023-02-15T00:09:55;38.53;;;20.53;;
11699;SDS011;5906;51.660;6.674;2023-02-15T00:12:22;37.10;;;22.10;;
11699;SDS011;5906;51.660;6.674;2023-02-15T00:14:49;43.27;;;22.37;;
11699;SDS011;5906;51.660;6.674;2023-02-15T00:17:16;39.97;;;21.30;;
11699;SDS011;5906;51.660;6.674;2023-02-15T00:19:43;44.43;;;21.73;;
11699;SDS011;5906;51.660;6.674;2023-02-15T00:22:10;47.20;;;21.07;;
11699;SDS011;5906;51.660;6.674;2023-02-15T00:24:38;37.00;;;20.70;;
11699;SDS011;5906;51.660;6.674;2023-02-15T00:27:05;38.33;;;21.87;;
11699;SDS011;5906;51.660;6.674;2023-02-15T00:29:32;39.67;;;21.10;;
11699;SDS011;5906;51.660;6.674;2023-02-15T00:31:59;36.27;;;20.27;;
11699;SDS011;5906;51.660;6.674;2023-02-15T00:34:26;34.63;;;20.70;;
11699;SDS011;5906;51.660;6.674;2023-02-15T00:36:54;39.30;;;21.00;;
11699;SDS011;5906;51.660;6.674;2023-02-15T00:39:21;43.53;;;21.87;;
11699;SDS011;5906;51.660;6.674;2023-02-15T00:41:50;37.03;;;20.73;;
11699;SDS011;5906;51.660;6.674;2023-02-15T00:44:17;31.07;;;19.47;;
11699;SDS011;5906;51.660;6.674;2023-02-15T00:46:44;37.77;;;20.30;;
11699;SDS011;5906;51.660;6.674;2023-02-15T00:49:11;40.37;;;21.73;;
11699;SDS011;5906;51.660;6.674;2023-02-15T00:51:38;39.50;;;19.83;;
11699;SDS011;5906;51.660;6.674;2023-02-15T00:54:05;43.73;;;22.60;;
11699;SDS011;5906;51.660;6.674;2023-02-15T00:56:32;50.27;;;22.87;;
11699;SDS011;5906;51.660;6.674;2023-02-15T00:58:59;42.80;;;21.77;;
11699;SDS011;5906;51.660;6.674;2023-02-15T01:01:26;39.33;;;21.67;;
11699;SDS011;5906;51.660;6.674;2023-02-15T01:03:54;39.47;;;21.27;;
11699;SDS011;5906;51.660;6.674;2023-02-15T01:06:21;35.60;;;20.57;;
11699;SDS011;5906;51.660;6.674;2023-02-15T01:08:48;37.07;;;20.37;;
11699;SDS011;5906;51.660;6.674;2023-02-15T01:11:17;43.47;;;22.70;;
11699;SDS011;5906;51.660;6.674;2023-02-15T01:13:51;44.30;;;23.43;;
11699;SDS011;5906;51.660;6.674;2023-02-15T01:16:20;40.80;;;23.27;;
11699;SDS011;5906;51.660;6.674;2023-02-15T01:18:47;37.83;;;20.30;;
11699;SDS011;5906;51.660;6.674;2023-02-15T01:21:16;38.87;;;20.10;;
11699;SDS011;5906;51.660;6.674;2023-02-15T01:23:45;41.20;;;21.17;;
11699;SDS011;5906;51.660;6.674;2023-02-15T01:26:12;36.20;;;21.03;;
11699;SDS011;5906;51.660;6.674;2023-02-15T01:28:40;42.80;;;19.47;;
11699;SDS011;5906;51.660;6.674;2023-02-15T01:31:08;37.90;;;20.43;;
11699;SDS011;5906;51.660;6.674;2023-02-15T01:33:40;30.90;;;19.20;;
11699;SDS011;5906;51.660;6.674;2023-02-15T01:36:08;31.80;;;17.87;;
11699;SDS011;5906;51.660;6.674;2023-02-15T01:38:35;33.83;;;17.90;;
11699;SDS011;5906;51.660;6.674;2023-02-15T01:41:03;28.97;;;17.10;;
11699;SDS011;5906;51.660;6.674;2023-02-15T01:43:52;30.70;;;18.00;;
11699;SDS011;5906;51.660;6.674;2023-02-15T01:46:26;43.80;;;21.70;;
11699;SDS011;5906;51.660;6.674;2023-02-15T01:48:56;39.27;;;20.03;;
11699;SDS011;5906;51.660;6.674;2023-02-15T01:51:29;31.73;;;19.67;;
11699;SDS011;5906;51.660;6.674;2023-02-15T01:54:05;36.87;;;20.27;;
11699;SDS011;5906;51.660;6.674;2023-02-15T01:56:37;41.10;;;21.67;;
11699;SDS011;5906;51.660;6.674;2023-02-15T01:59:07;34.63;;;20.47;;
11699;SDS011;5906;51.660;6.674;2023-02-15T02:01:40;36.77;;;21.37;;
11699;SDS011;5906;51.660;6.674;2023-02-15T02:06:39;35.57;;;18.97;;
11699;SDS011;5906;51.660;6.674;2023-02-15T02:09:06;32.60;;;20.23;;
11699;SDS011;5906;51.660;6.674;2023-02-15T02:11:34;36.20;;;19.07;;
11699;SDS011;5906;51.660;6.674;2023-02-15T02:14:01;33.83;;;17.90;;
11699;SDS011;5906;51.660;6.674;2023-02-15T02:16:35;31.27;;;18.00;;
11699;SDS011;5906;51.660;6.674;2023-02-15T02:24:58;32.77;;;18.40;;
11699;SDS011;5906;51.660;6.674;2023-02-15T02:44:18;36.13;;;19.47;;
11699;SDS011;5906;51.660;6.674;2023-02-15T02:51:58;37.57;;;18.13;;
11699;SDS011;5906;51.660;6.674;2023-02-15T02:54:26;34.60;;;20.60;;
11699;SDS011;5906;51.660;6.674;2023-02-15T02:56:55;29.13;;;17.13;;
11699;SDS011;5906;51.660;6.674;2023-02-15T02:59:27;36.60;;;20.80;;
11699;SDS011;5906;51.660;6.674;2023-02-15T03:02:05;28.97;;;17.60;;
11699;SDS011;5906;51.660;6.674;2023-02-15T03:04:42;35.27;;;17.80;;
11699;SDS011;5906;51.660;6.674;2023-02-15T03:07:17;32.03;;;17.57;;
11699;SDS011;5906;51.660;6.674;2023-02-15T03:09:52;30.60;;;17.80;;
11699;SDS011;5906;51.660;6.674;2023-02-15T03:12:26;36.57;;;18.13;;
11699;SDS011;5906;51.660;6.674;2023-02-15T03:14:57;35.87;;;18.90;;
11699;SDS011;5906;51.660;6.674;2023-02-15T03:17:35;34.57;;;18.67;;
11699;SDS011;5906;51.660;6.674;2023-02-15T03:20:07;32.10;;;18.63;;
11699;SDS011;5906;51.660;6.674;2023-02-15T03:22:59;31.97;;;16.97;;
11699;SDS011;5906;51.660;6.674;2023-02-15T03:25:32;36.83;;;19.07;;
11699;SDS011;5906;51.660;6.674;2023-02-15T03:28:05;33.67;;;17.53;;
11699;SDS011;5906;51.660;6.674;2023-02-15T03:30:36;32.77;;;17.53;;
11699;SDS011;5906;51.660;6.674;2023-02-15T03:33:06;33.33;;;18.30;;
11699;SDS011;5906;51.660;6.674;2023-02-15T03:35:36;40.73;;;21.40;;
11699;SDS011;5906;51.660;6.674;2023-02-15T03:38:11;37.07;;;18.97;;
11699;SDS011;5906;51.660;6.674;2023-02-15T03:40:44;36.17;;;19.60;;
11699;SDS011;5906;51.660;6.674;2023-02-15T03:49:07;37.40;;;19.27;;
11699;SDS011;5906;51.660;6.674;2023-02-15T03:51:39;33.47;;;19.80;;
11699;SDS011;5906;51.660;6.674;2023-02-15T03:54:09;36.23;;;18.30;;
11699;SDS011;5906;51.660;6.674;2023-02-15T03:56:40;31.77;;;17.70;;
11699;SDS011;5906;51.660;6.674;2023-02-15T03:59:28;32.77;;;17.13;;
11699;SDS011;5906;51.660;6.674;2023-02-15T04:02:21;28.80;;;16.77;;
11699;SDS011;5906;51.660;6.674;2023-02-15T04:04:53;30.30;;;19.10;;
11699;SDS011;5906;51.660;6.674;2023-02-15T04:07:19;35.20;;;19.07;;
11699;SDS011;5906;51.660;6.674;2023-02-15T04:09:47;85.03;;;21.90;;
11699;SDS011;5906;51.660;6.674;2023-02-15T04:12:32;32.10;;;17.57;;
11699;SDS011;5906;51.660;6.674;2023-02-15T04:14:59;31.57;;;17.60;;
11699;SDS011;5906;51.660;6.674;2023-02-15T04:17:45;30.77;;;17.63;;
11699;SDS011;5906;51.660;6.674;2023-02-15T04:20:12;32.77;;;18.60;;
11699;SDS011;5906;51.660;6.674;2023-02-15T04:22:58;35.60;;;19.57;;
11699;SDS011;5906;51.660;6.674;2023-02-15T04:25:43;36.77;;;18.57;;
11699;SDS011;5906;51.660;6.674;2023-02-15T04:28:10;30.33;;;19.23;;
11699;SDS011;5906;51.660;6.674;2023-02-15T04:30:37;33.30;;;18.20;;
11699;SDS011;5906;51.660;6.674;2023-02-15T04:33:04;34.53;;;18.70;;
11699;SDS011;5906;51.660;6.674;2023-02-15T04:35:31;42.63;;;20.23;;
11699;SDS011;5906;51.660;6.674;2023-02-15T04:38:00;39.57;;;20.30;;
11699;SDS011;5906;51.660;6.674;2023-02-15T04:40:27;31.23;;;17.23;;
11699;SDS011;5906;51.660;6.674;2023-02-15T04:42:54;32.00;;;18.60;;
11699;SDS011;5906;51.660;6.674;2023-02-15T04:45:21;36.27;;;18.50;;
11699;SDS011;5906;51.660;6.674;2023-02-15T04:47:47;50.07;;;26.20;;
11699;SDS011;5906;51.660;6.674;2023-02-15T04:50:14;57.67;;;26.30;;
11699;SDS011;5906;51.660;6.674;2023-02-15T04:52:41;60.03;;;27.00;;
11699;SDS011;5906;51.660;6.674;2023-02-15T04:55:08;41.63;;;20.83;;
11699;SDS011;5906;51.660;6.674;2023-02-15T04:57:35;46.70;;;22.37;;
11699;SDS011;5906;51.660;6.674;2023-02-15T05:00:01;44.00;;;23.57;;
11699;SDS011;5906;51.660;6.674;2023-02-15T05:02:28;39.37;;;20.37;;
11699;SDS011;5906;51.660;6.674;2023-02-15T05:04:55;36.33;;;18.77;;
11699;SDS011;5906;51.660;6.674;2023-02-15T05:07:22;33.93;;;19.03;;
11699;SDS011;5906;51.660;6.674;2023-02-15T05:09:49;31.47;;;17.93;;
11699;SDS011;5906;51.660;6.674;2023-02-15T05:12:15;37.23;;;18.47;;
11699;SDS011;5906;51.660;6.674;2023-02-15T05:14:42;34.07;;;20.40;;
11699;SDS011;5906;51.660;6.674;2023-02-15T05:17:09;31.87;;;18.10;;
11699;SDS011;5906;51.660;6.674;2023-02-15T05:19:36;33.60;;;19.47;;
11699;SDS011;5906;51.660;6.674;2023-02-15T05:22:03;38.07;;;18.63;;
11699;SDS011;5906;51.660;6.674;2023-02-15T05:24:29;36.67;;;21.10;;
11699;SDS011;5906;51.660;6.674;2023-02-15T05:27:15;37.53;;;22.07;;
11699;SDS011;5906;51.660;6.674;2023-02-15T05:30:01;35.63;;;18.47;;
11699;SDS011;5906;51.660;6.674;2023-02-15T05:32:28;36.67;;;18.03;;
11699;SDS011;5906;51.660;6.674;2023-02-15T05:34:55;40.57;;;19.53;;
11699;SDS011;5906;51.660;6.674;2023-02-15T05:37:21;33.70;;;17.30;;
11699;SDS011;5906;51.660;6.674;2023-02-15T05:39:48;32.53;;;16.97;;
11699;SDS011;5906;51.660;6.674;2023-02-15T05:42:15;34.87;;;17.50;;
11699;SDS011;5906;51.660;6.674;2023-02-15T05:44:41;32.77;;;17.63;;
11699;SDS011;5906;51.660;6.674;2023-02-15T05:47:08;38.73;;;17.97;;
11699;SDS011;5906;51.660;6.674;2023-02-15T05:49:35;40.10;;;19.00;;
11699;SDS011;5906;51.660;6.674;2023-02-15T05:52:05;32.67;;;17.50;;
11699;SDS011;5906;51.660;6.674;2023-02-15T05:54:32;37.23;;;18.70;;
11699;SDS011;5906;51.660;6.674;2023-02-15T05:56:58;39.47;;;20.63;;
11699;SDS011;5906;51.660;6.674;2023-02-15T05:59:25;42.40;;;19.67;;
11699;SDS011;5906;51.660;6.674;2023-02-15T06:01:52;34.00;;;18.13;;
11699;SDS011;5906;51.660;6.674;2023-02-15T06:04:19;35.47;;;19.80;;
11699;SDS011;5906;51.660;6.674;2023-02-15T06:06:46;35.20;;;17.87;;
11699;SDS011;5906;51.660;6.674;2023-02-15T06:09:13;35.20;;;19.80;;
11699;SDS011;5906;51.660;6.674;2023-02-15T06:11:40;39.40;;;18.80;;
11699;SDS011;5906;51.660;6.674;2023-02-15T06:14:06;38.70;;;18.70;;
11699;SDS011;5906;51.660;6.674;2023-02-15T06:16:33;35.53;;;17.47;;
11699;SDS011;5906;51.660;6.674;2023-02-15T06:19:00;38.27;;;19.40;;
11699;SDS011;5906;51.660;6.674;2023-02-15T06:21:28;37.43;;;20.77;;
11699;SDS011;5906;51.660;6.674;2023-02-15T06:23:56;40.37;;;19.33;;
11699;SDS011;5906;51.660;6.674;2023-02-15T06:26:22;36.70;;;21.23;;
11699;SDS011;5906;51.660;6.674;2023-02-15T06:28:49;42.67;;;22.37;;
11699;SDS011;5906;51.660;6.674;2023-02-15T06:31:16;39.87;;;21.73;;
11699;SDS011;5906;51.660;6.674;2023-02-15T06:33:43;47.33;;;24.70;;
11699;SDS011;5906;51.660;6.674;2023-02-15T06:36:09;40.77;;;19.60;;
11699;SDS011;5906;51.660;6.674;2023-02-15T06:38:36;41.87;;;20.60;;
11699;SDS011;5906;51.660;6.674;2023-02-15T06:41:03;44.17;;;20.40;;
11699;SDS011;5906;51.660;6.674;2023-02-15T06:43:30;41.10;;;20.70;;
11699;SDS011;5906;51.660;6.674;2023-02-15T06:45:57;38.13;;;17.70;;
11699;SDS011;5906;51.660;6.674;2023-02-15T06:48:24;47.13;;;21.67;;
11699;SDS011;5906;51.660;6.674;2023-02-15T06:50:51;37.63;;;22.70;;
11699;SDS011;5906;51.660;6.674;2023-02-15T06:53:18;41.90;;;20.73;;
11699;SDS011;5906;51.660;6.674;2023-02-15T06:55:45;40.60;;;20.30;;
11699;SDS011;5906;51.660;6.674;2023-02-15T06:58:12;44.53;;;20.80;;
11699;SDS011;5906;51.660;6.674;2023-02-15T07:00:38;57.03;;;24.33;;
11699;SDS011;5906;51.660;6.674;2023-02-15T07:03:05;38.17;;;19.10;;
11699;SDS011;5906;51.660;6.674;2023-02-15T07:05:32;46.07;;;21.17;;
11699;SDS011;5906;51.660;6.674;2023-02-15T07:08:00;39.57;;;20.17;;
11699;SDS011;5906;51.660;6.674;2023-02-15T07:10:27;42.03;;;21.30;;
11699;SDS011;5906;51.660;6.674;2023-02-15T07:12:54;43.73;;;20.93;;
11699;SDS011;5906;51.660;6.674;2023-02-15T07:15:21;52.43;;;23.30;;
11699;SDS011;5906;51.660;6.674;2023-02-15T07:17:48;40.97;;;22.73;;
11699;SDS011;5906;51.660;6.674;2023-02-15T07:20:17;43.77;;;23.37;;
11699;SDS011;5906;51.660;6.674;2023-02-15T07:22:49;41.30;;;20.40;;
11699;SDS011;5906;51.660;6.674;2023-02-15T07:25:16;44.03;;;20.90;;
11699;SDS011;5906;51.660;6.674;2023-02-15T07:27:43;38.10;;;18.70;;
11699;SDS011;5906;51.660;6.674;2023-02-15T07:30:12;36.90;;;18.30;;
11699;SDS011;5906;51.660;6.674;2023-02-15T07:32:41;43.50;;;18.10;;
11699;SDS011;5906;51.660;6.674;2023-02-15T07:35:30;36.47;;;19.13;;
11699;SDS011;5906;51.660;6.674;2023-02-15T07:37:57;37.03;;;18.77;;
11699;SDS011;5906;51.660;6.674;2023-02-15T07:40:24;40.87;;;19.70;;
11699;SDS011;5906;51.660;6.674;2023-02-15T07:42:51;36.40;;;19.73;;
11699;SDS011;5906;51.660;6.674;2023-02-15T07:45:20;42.30;;;20.80;;
11699;SDS011;5906;51.660;6.674;2023-02-15T07:47:47;40.13;;;20.50;;
11699;SDS011;5906;51.660;6.674;2023-02-15T07:50:14;42.30;;;21.50;;
11699;SDS011;5906;51.660;6.674;2023-02-15T07:52:41;54.87;;;22.77;;
11699;SDS011;5906;51.660;6.674;2023-02-15T07:55:08;44.77;;;22.47;;
11699;SDS011;5906;51.660;6.674;2023-02-15T07:57:48;43.43;;;22.40;;
11699;SDS011;5906;51.660;6.674;2023-02-15T08:00:16;51.67;;;23.27;;
11699;SDS011;5906;51.660;6.674;2023-02-15T08:02:49;49.23;;;25.47;;
11699;SDS011;5906;51.660;6.674;2023-02-15T08:05:41;49.37;;;25.97;;
11699;SDS011;5906;51.660;6.674;2023-02-15T08:08:09;49.00;;;24.50;;
11699;SDS011;5906;51.660;6.674;2023-02-15T08:13:52;55.10;;;27.30;;
11699;SDS011;5906;51.660;6.674;2023-02-15T08:16:44;52.97;;;25.97;;
11699;SDS011;5906;51.660;6.674;2023-02-15T08:19:22;68.40;;;27.13;;
11699;SDS011;5906;51.660;6.674;2023-02-15T08:21:52;78.17;;;31.30;;
11699;SDS011;5906;51.660;6.674;2023-02-15T08:24:24;58.30;;;28.67;;
11699;SDS011;5906;51.660;6.674;2023-02-15T08:26:55;70.43;;;32.27;;
11699;SDS011;5906;51.660;6.674;2023-02-15T08:29:24;62.00;;;30.27;;
11699;SDS011;5906;51.660;6.674;2023-02-15T08:31:53;61.90;;;29.23;;
11699;SDS011;5906;51.660;6.674;2023-02-15T08:34:29;65.23;;;31.40;;
11699;SDS011;5906;51.660;6.674;2023-02-15T08:36:57;88.30;;;36.20;;
11699;SDS011;5906;51.660;6.674;2023-02-15T08:39:24;63.27;;;30.73;;
11699;SDS011;5906;51.660;6.674;2023-02-15T08:41:51;59.73;;;30.67;;
11699;SDS011;5906;51.660;6.674;2023-02-15T08:44:18;63.40;;;31.00;;
11699;SDS011;5906;51.660;6.674;2023-02-15T08:46:46;69.87;;;33.10;;
11699;SDS011;5906;51.660;6.674;2023-02-15T08:49:23;68.47;;;34.83;;
11699;SDS011;5906;51.660;6.674;2023-02-15T08:51:50;58.50;;;29.80;;
11699;SDS011;5906;51.660;6.674;2023-02-15T08:54:18;76.50;;;31.20;;
11699;SDS011;5906;51.660;6.674;2023-02-15T08:56:47;66.97;;;31.10;;
11699;SDS011;5906;51.660;6.674;2023-02-15T08:59:16;69.23;;;34.73;;
11699;SDS011;5906;51.660;6.674;2023-02-15T09:01:45;64.93;;;31.97;;
11699;SDS011;5906;51.660;6.674;2023-02-15T09:04:12;68.63;;;32.47;;
11699;SDS011;5906;51.660;6.674;2023-02-15T09:06:42;69.03;;;32.33;;
11699;SDS011;5906;51.660;6.674;2023-02-15T09:09:14;70.73;;;30.03;;
11699;SDS011;5906;51.660;6.674;2023-02-15T09:11:42;72.07;;;32.40;;
11699;SDS011;5906;51.660;6.674;2023-02-15T09:14:12;68.47;;;32.10;;
11699;SDS011;5906;51.660;6.674;2023-02-15T09:16:41;64.50;;;31.27;;
11699;SDS011;5906;51.660;6.674;2023-02-15T09:19:11;80.00;;;29.80;;
11699;SDS011;5906;51.660;6.674;2023-02-15T09:21:39;60.63;;;30.33;;
11699;SDS011;5906;51.660;6.674;2023-02-15T09:24:08;63.43;;;31.43;;
11699;SDS011;5906;51.660;6.674;2023-02-15T09:26:37;57.93;;;30.97;;
11699;SDS011;5906;51.660;6.674;2023-02-15T09:29:07;61.90;;;29.67;;
11699;SDS011;5906;51.660;6.674;2023-02-15T09:31:42;57.57;;;27.80;;
11699;SDS011;5906;51.660;6.674;2023-02-15T09:34:12;57.43;;;28.00;;
11699;SDS011;5906;51.660;6.674;2023-02-15T09:36:41;59.07;;;27.00;;
11699;SDS011;5906;51.660;6.674;2023-02-15T09:39:10;58.67;;;29.00;;
11699;SDS011;5906;51.660;6.674;2023-02-15T09:50:23;40.33;;;22.80;;
11699;SDS011;5906;51.660;6.674;2023-02-15T10:06:44;40.40;;;21.50;;
11699;SDS011;5906;51.660;6.674;2023-02-15T10:15:10;40.00;;;20.80;;
11699;SDS011;5906;51.660;6.674;2023-02-15T10:17:50;44.13;;;21.90;;
11699;SDS011;5906;51.660;6.674;2023-02-15T10:26:40;39.40;;;20.57;;
11699;SDS011;5906;51.660;6.674;2023-02-15T10:34:52;40.60;;;20.10;;
11699;SDS011;5906;51.660;6.674;2023-02-15T10:43:20;41.37;;;20.57;;
11699;SDS011;5906;51.660;6.674;2023-02-15T10:46:03;42.73;;;21.67;;
11699;SDS011;5906;51.660;6.674;2023-02-15T10:51:30;41.23;;;20.40;;
11699;SDS011;5906;51.660;6.674;2023-02-15T10:57:19;36.70;;;20.53;;
11699;SDS011;5906;51.660;6.674;2023-02-15T11:05:24;41.33;;;21.87;;
11699;SDS011;5906;51.660;6.674;2023-02-15T11:08:11;41.97;;;21.77;;
11699;SDS011;5906;51.660;6.674;2023-02-15T11:10:42;41.73;;;22.00;;
11699;SDS011;5906;51.660;6.674;2023-02-15T11:13:14;38.37;;;21.63;;
11699;SDS011;5906;51.660;6.674;2023-02-15T11:15:56;36.13;;;20.63;;
11699;SDS011;5906;51.660;6.674;2023-02-15T11:23:53;42.27;;;21.10;;
11699;SDS011;5906;51.660;6.674;2023-02-15T11:28:55;36.53;;;20.20;;
11699;SDS011;5906;51.660;6.674;2023-02-15T11:31:26;38.20;;;19.90;;
11699;SDS011;5906;51.660;6.674;2023-02-15T11:34:04;47.93;;;20.27;;
11699;SDS011;5906;51.660;6.674;2023-02-15T11:36:38;38.07;;;19.23;;
11699;SDS011;5906;51.660;6.674;2023-02-15T11:39:11;42.40;;;19.57;;
11699;SDS011;5906;51.660;6.674;2023-02-15T11:41:44;33.00;;;18.03;;
11699;SDS011;5906;51.660;6.674;2023-02-15T11:44:22;46.33;;;19.20;;
11699;SDS011;5906;51.660;6.674;2023-02-15T11:46:53;37.53;;;19.30;;
11699;SDS011;5906;51.660;6.674;2023-02-15T11:49:32;30.43;;;18.77;;
11699;SDS011;5906;51.660;6.674;2023-02-15T11:52:02;39.67;;;20.30;;
11699;SDS011;5906;51.660;6.674;2023-02-15T11:54:35;33.90;;;18.87;;
11699;SDS011;5906;51.660;6.674;2023-02-15T11:57:10;38.53;;;20.87;;
11699;SDS011;5906;51.660;6.674;2023-02-15T11:59:50;33.00;;;18.57;;
11699;SDS011;5906;51.660;6.674;2023-02-15T12:02:27;35.77;;;18.37;;
11699;SDS011;5906;51.660;6.674;2023-02-15T12:04:57;33.80;;;19.70;;
11699;SDS011;5906;51.660;6.674;2023-02-15T12:07:28;35.47;;;20.63;;
11699;SDS011;5906;51.660;6.674;2023-02-15T12:12:48;34.57;;;19.93;;
11699;SDS011;5906;51.660;6.674;2023-02-15T12:15:34;32.70;;;19.10;;
11699;SDS011;5906;51.660;6.674;2023-02-15T12:18:01;43.80;;;20.00;;
11699;SDS011;5906;51.660;6.674;2023-02-15T12:20:32;33.37;;;19.37;;
11699;SDS011;5906;51.660;6.674;2023-02-15T12:23:03;39.13;;;21.10;;
11699;SDS011;5906;51.660;6.674;2023-02-15T12:25:41;34.43;;;19.00;;
11699;SDS011;5906;51.660;6.674;2023-02-15T12:31:20;34.33;;;19.30;;
11699;SDS011;5906;51.660;6.674;2023-02-15T12:33:51;35.73;;;19.40;;
11699;SDS011;5906;51.660;6.674;2023-02-15T12:36:24;31.73;;;18.47;;
11699;SDS011;5906;51.660;6.674;2023-02-15T12:46:56;32.43;;;18.03;;
11699;SDS011;5906;51.660;6.674;2023-02-15T12:49:24;33.40;;;18.00;;
11699;SDS011;5906;51.660;6.674;2023-02-15T12:51:53;34.10;;;18.03;;
11699;SDS011;5906;51.660;6.674;2023-02-15T12:56:57;37.50;;;18.50;;
11699;SDS011;5906;51.660;6.674;2023-02-15T12:59:25;28.83;;;17.53;;
11699;SDS011;5906;51.660;6.674;2023-02-15T13:01:52;33.57;;;19.70;;
11699;SDS011;5906;51.660;6.674;2023-02-15T13:04:26;34.43;;;18.90;;
11699;SDS011;5906;51.660;6.674;2023-02-15T13:06:56;36.07;;;17.47;;
11699;SDS011;5906;51.660;6.674;2023-02-15T13:14:51;32.17;;;19.23;;
11699;SDS011;5906;51.660;6.674;2023-02-15T13:17:28;35.23;;;19.40;;
11699;SDS011;5906;51.660;6.674;2023-02-15T13:20:00;31.40;;;17.20;;
11699;SDS011;5906;51.660;6.674;2023-02-15T13:22:40;33.43;;;17.93;;
11699;SDS011;5906;51.660;6.674;2023-02-15T13:25:14;32.33;;;18.03;;
11699;SDS011;5906;51.660;6.674;2023-02-15T13:27:50;31.73;;;17.27;;
11699;SDS011;5906;51.660;6.674;2023-02-15T13:30:22;32.63;;;17.20;;
11699;SDS011;5906;51.660;6.674;2023-02-15T13:32:50;35.37;;;19.67;;
11699;SDS011;5906;51.660;6.674;2023-02-15T13:35:20;36.57;;;17.13;;
11699;SDS011;5906;51.660;6.674;2023-02-15T13:37:58;32.83;;;17.97;;
11699;SDS011;5906;51.660;6.674;2023-02-15T13:43:45;35.20;;;18.20;;
11699;SDS011;5906;51.660;6.674;2023-02-15T13:49:26;34.80;;;18.20;;
11699;SDS011;5906;51.660;6.674;2023-02-15T13:58:10;34.23;;;17.43;;
11699;SDS011;5906;51.660;6.674;2023-02-15T14:00:54;30.73;;;17.37;;
11699;SDS011;5906;51.660;6.674;2023-02-15T14:09:55;34.33;;;18.60;;
11699;SDS011;5906;51.660;6.674;2023-02-15T14:12:21;32.77;;;17.20;;
11699;SDS011;5906;51.660;6.674;2023-02-15T14:15:10;35.00;;;18.00;;
11699;SDS011;5906;51.660;6.674;2023-02-15T14:17:59;30.30;;;17.23;;
11699;SDS011;5906;51.660;6.674;2023-02-15T14:23:20;36.40;;;18.60;;
11699;SDS011;5906;51.660;6.674;2023-02-15T14:26:00;34.10;;;16.97;;
11699;SDS011;5906;51.660;6.674;2023-02-15T14:31:47;35.40;;;18.40;;
11699;SDS011;5906;51.660;6.674;2023-02-15T14:34:21;33.30;;;18.43;;
11699;SDS011;5906;51.660;6.674;2023-02-15T14:36:52;28.97;;;16.73;;
11699;SDS011;5906;51.660;6.674;2023-02-15T14:42:37;31.23;;;17.90;;
11699;SDS011;5906;51.660;6.674;2023-02-15T14:47:56;35.40;;;18.33;;
11699;SDS011;5906;51.660;6.674;2023-02-15T15:01:16;32.87;;;18.07;;
11699;SDS011;5906;51.660;6.674;2023-02-15T15:04:06;39.33;;;18.80;;
11699;SDS011;5906;51.660;6.674;2023-02-15T15:06:41;32.30;;;18.50;;
11699;SDS011;5906;51.660;6.674;2023-02-15T15:09:11;36.63;;;18.93;;
11699;SDS011;5906;51.660;6.674;2023-02-15T15:11:51;42.23;;;18.30;;
11699;SDS011;5906;51.660;6.674;2023-02-15T15:17:02;33.53;;;18.63;;
11699;SDS011;5906;51.660;6.674;2023-02-15T15:24:47;32.33;;;18.17;;
11699;SDS011;5906;51.660;6.674;2023-02-15T15:49:38;33.10;;;18.63;;
11699;SDS011;5906;51.660;6.674;2023-02-15T15:52:14;34.67;;;17.17;;
11699;SDS011;5906;51.660;6.674;2023-02-15T15:54:44;32.77;;;17.23;;
11699;SDS011;5906;51.660;6.674;2023-02-15T15:57:16;35.50;;;17.67;;
11699;SDS011;5906;51.660;6.674;2023-02-15T15:59:52;38.07;;;18.93;;
11699;SDS011;5906;51.660;6.674;2023-02-15T16:02:20;35.50;;;19.07;;
11699;SDS011;5906;51.660;6.674;2023-02-15T16:04:49;34.33;;;18.33;;
11699;SDS011;5906;51.660;6.674;2023-02-15T16:09:54;38.30;;;19.00;;
11699;SDS011;5906;51.660;6.674;2023-02-15T16:12:27;30.87;;;17.43;;
11699;SDS011;5906;51.660;6.674;2023-02-15T16:14:55;36.33;;;18.63;;
11699;SDS011;5906;51.660;6.674;2023-02-15T16:17:24;35.70;;;17.63;;
11699;SDS011;5906;51.660;6.674;2023-02-15T16:20:03;36.43;;;17.20;;
11699;SDS011;5906;51.660;6.674;2023-02-15T16:22:31;33.40;;;17.13;;
11699;SDS011;5906;51.660;6.674;2023-02-15T16:27:55;28.70;;;16.90;;
11699;SDS011;5906;51.660;6.674;2023-02-15T16:33:06;35.13;;;18.27;;
11699;SDS011;5906;51.660;6.674;2023-02-15T16:35:35;31.13;;;17.50;;
11699;SDS011;5906;51.660;6.674;2023-02-15T16:38:03;35.30;;;18.07;;
11699;SDS011;5906;51.660;6.674;2023-02-15T16:40:41;30.53;;;16.47;;
11699;SDS011;5906;51.660;6.674;2023-02-15T16:43:23;38.77;;;18.27;;
11699;SDS011;5906;51.660;6.674;2023-02-15T16:45:54;36.47;;;20.30;;
11699;SDS011;5906;51.660;6.674;2023-02-15T16:48:33;36.80;;;19.43;;
11699;SDS011;5906;51.660;6.674;2023-02-15T16:51:09;35.17;;;18.87;;
11699;SDS011;5906;51.660;6.674;2023-02-15T16:53:37;33.40;;;17.90;;
11699;SDS011;5906;51.660;6.674;2023-02-15T16:56:04;30.97;;;17.07;;
11699;SDS011;5906;51.660;6.674;2023-02-15T16:58:36;33.37;;;17.70;;
11699;SDS011;5906;51.660;6.674;2023-02-15T17:01:07;55.00;;;20.13;;
11699;SDS011;5906;51.660;6.674;2023-02-15T17:03:38;42.90;;;21.87;;
11699;SDS011;5906;51.660;6.674;2023-02-15T17:06:40;43.70;;;23.03;;
11699;SDS011;5906;51.660;6.674;2023-02-15T17:09:04;45.67;;;20.60;;
11699;SDS011;5906;51.660;6.674;2023-02-15T17:11:36;40.50;;;20.87;;
11699;SDS011;5906;51.660;6.674;2023-02-15T17:16:41;43.87;;;22.93;;
11699;SDS011;5906;51.660;6.674;2023-02-15T17:19:09;39.90;;;20.87;;
11699;SDS011;5906;51.660;6.674;2023-02-15T17:21:42;44.90;;;22.67;;
11699;SDS011;5906;51.660;6.674;2023-02-15T17:24:19;37.23;;;20.30;;
11699;SDS011;5906;51.660;6.674;2023-02-15T17:27:15;37.13;;;19.13;;
11699;SDS011;5906;51.660;6.674;2023-02-15T17:29:47;47.73;;;20.17;;
11699;SDS011;5906;51.660;6.674;2023-02-15T17:32:19;40.37;;;24.13;;
11699;SDS011;5906;51.660;6.674;2023-02-15T17:37:45;38.77;;;18.93;;
11699;SDS011;5906;51.660;6.674;2023-02-15T17:42:52;37.23;;;20.37;;
11699;SDS011;5906;51.660;6.674;2023-02-15T17:45:19;36.73;;;19.10;;
11699;SDS011;5906;51.660;6.674;2023-02-15T17:47:48;38.60;;;19.50;;
11699;SDS011;5906;51.660;6.674;2023-02-15T17:50:20;32.13;;;18.53;;
11699;SDS011;5906;51.660;6.674;2023-02-15T17:53:10;34.70;;;18.30;;
11699;SDS011;5906;51.660;6.674;2023-02-15T17:55:37;34.53;;;19.03;;
11699;SDS011;5906;51.660;6.674;2023-02-15T17:58:06;39.87;;;19.80;;
11699;SDS011;5906;51.660;6.674;2023-02-15T18:00:35;35.23;;;19.07;;
11699;SDS011;5906;51.660;6.674;2023-02-15T18:06:26;35.00;;;19.23;;
11699;SDS011;5906;51.660;6.674;2023-02-15T18:09:13;31.20;;;17.43;;
11699;SDS011;5906;51.660;6.674;2023-02-15T18:12:00;30.20;;;17.27;;
11699;SDS011;5906;51.660;6.674;2023-02-15T18:14:27;35.03;;;18.97;;
11699;SDS011;5906;51.660;6.674;2023-02-15T18:16:54;42.93;;;19.40;;
11699;SDS011;5906;51.660;6.674;2023-02-15T18:19:23;35.30;;;20.10;;
11699;SDS011;5906;51.660;6.674;2023-02-15T18:21:51;29.40;;;17.60;;
11699;SDS011;5906;51.660;6.674;2023-02-15T18:24:21;32.63;;;18.60;;
11699;SDS011;5906;51.660;6.674;2023-02-15T18:26:51;30.30;;;18.80;;
11699;SDS011;5906;51.660;6.674;2023-02-15T18:29:19;33.53;;;18.10;;
11699;SDS011;5906;51.660;6.674;2023-02-15T18:31:47;32.30;;;18.40;;
11699;SDS011;5906;51.660;6.674;2023-02-15T18:34:29;32.87;;;18.80;;